Terminal Aerodrome Forecast
Issued by NWS

Home | Current Version | Previous Version | Text Only | Print | Product List | Glossary On
Versions: 1 2 3 4 5 6 7 8 9 10 11 12
000
FTUS44 KEPZ 241720
TAFLRU
TAF
KLRU 241720Z 2418/2518 10005KT P6SM FEW120 SCT150
     FM250300 07006KT P6SM SCT140
     FM251400 10008KT P6SM SKC=

USA.gov is the U.S. government's official web portal to all federal, state and local government web resources and services.